Time;durP1;ratioP1;P1;durP2;ratioP2;P2;SDS_P1;SDS_P2;PMS_P1;PMS_P2;Temp;Humidity;BMP_temperature;BMP_pressure;BME280_temperature;BME280_humidity;BME280_pressure;Samples;Min_cycle;Max_cycle;Signal;HPM_P1;HPM_P2
2022/10/27 00:02:24;;;;;;;;;;;11.90;99.90;;;;;;4977802;28;19937;-88
2022/10/27 00:04:49;;;;;;;;;;;11.80;99.90;;;;;;4966376;28;19927;-87
2022/10/27 00:07:15;;;;;;;;;;;11.80;99.90;;;;;;4971577;28;19965;-88
2022/10/27 00:09:40;;;;;;;;;;;10.60;99.90;;;;;;4943873;28;19926;-88
2022/10/27 00:12:06;;;;;;;;;;;11.80;99.90;;;;;;4961180;28;20004;-88
2022/10/27 00:14:32;;;;;;;;;;;11.70;99.90;;;;;;4943644;28;20005;-88
2022/10/27 00:16:57;;;;;;;;;;;11.70;99.90;;;;;;4968660;28;19973;-87
2022/10/27 00:19:24;;;;;;;;;;;11.80;99.90;;;;;;4960909;28;19926;-88
2022/10/27 00:21:52;;;;;;;;;;;13.10;99.90;;;;;;4947636;28;19965;-88
2022/10/27 00:24:26;;;;;;;;;;;11.80;99.90;;;;;;4942002;29;20353;-88
2022/10/27 00:26:51;;;;;;;;;;;11.90;99.90;;;;;;4942845;28;19930;-87
2022/10/27 00:29:20;;;;;;;;;;;11.80;99.90;;;;;;4946330;28;19926;-88
2022/10/27 00:31:48;;;;;;;;;;;11.80;99.90;;;;;;4967290;28;19933;-88
2022/10/27 00:34:16;;;;;;;;;;;11.90;99.90;;;;;;4945812;28;19926;-88
2022/10/27 00:36:41;;;;;;;;;;;10.60;99.90;;;;;;4960274;28;19926;-88
2022/10/27 00:39:07;;;;;;;;;;;11.80;99.90;;;;;;4946767;28;19933;-88
2022/10/27 00:41:42;;;;;;;;;;;10.60;99.90;;;;;;4949452;28;19933;-87
2022/10/27 00:44:27;;;;;;;;;;;12.00;99.90;;;;;;4965074;28;19926;-88
2022/10/27 00:46:55;;;;;;;;;;;11.80;99.90;;;;;;4978410;28;19958;-88
2022/10/27 00:49:27;;;;;;;;;;;11.80;99.90;;;;;;4959335;28;19956;-88
2022/10/27 00:51:58;;;;;;;;;;;11.80;99.90;;;;;;4940179;28;20009;-87
2022/10/27 00:54:34;;;;;;;;;;;11.70;99.90;;;;;;4944921;29;19949;-87
2022/10/27 00:57:03;;;;;;;;;;;11.80;99.90;;;;;;4956605;28;19933;-88
2022/10/27 00:59:29;;;;;;;;;;;11.70;99.90;;;;;;4964341;28;20360;-88
2022/10/27 01:01:57;;;;;;;;;;;11.70;99.90;;;;;;4947168;28;19976;-88
2022/10/27 01:04:33;;;;;;;;;;;12.00;99.90;;;;;;4944556;28;19926;-88
2022/10/27 01:06:59;;;;;;;;;;;11.70;99.90;;;;;;4961885;28;19927;-87
2022/10/27 01:09:25;;;;;;;;;;;11.70;99.90;;;;;;4969114;28;19926;-87
2022/10/27 01:11:51;;;;;;;;;;;11.30;99.90;;;;;;4950742;28;19926;-88
2022/10/27 01:14:16;;;;;;;;;;;11.40;99.90;;;;;;4938876;29;19926;-88
2022/10/27 01:17:11;;;;;;;;;;;11.80;99.90;;;;;;4948652;28;20265;-88
2022/10/27 01:19:52;;;;;;;;;;;11.80;99.90;;;;;;4959186;28;20285;-87
2022/10/27 01:22:27;;;;;;;;;;;11.80;99.90;;;;;;4955891;28;19931;-88
2022/10/27 01:25:04;;;;;;;;;;;11.80;99.90;;;;;;4966164;28;19933;-88
2022/10/27 01:27:39;;;;;;;;;;;11.80;99.90;;;;;;4959349;28;19930;-88
2022/10/27 01:30:16;;;;;;;;;;;12.10;99.90;;;;;;4960422;28;19926;-88
2022/10/27 01:32:54;;;;;;;;;;;11.90;99.90;;;;;;4941551;28;20399;-88
2022/10/27 01:35:38;;;;;;;;;;;12.10;99.90;;;;;;4942277;29;19934;-88
2022/10/27 01:38:22;;;;;;;;;;;11.90;99.90;;;;;;4940788;29;19937;-87
2022/10/27 01:41:13;;;;;;;;;;;12.00;99.90;;;;;;4965971;28;19926;-88
2022/10/27 01:43:39;;;;;;;;;;;12.00;99.90;;;;;;4967611;28;19926;-88
2022/10/27 01:46:06;;;;;;;;;;;12.00;99.90;;;;;;4958873;28;19930;-86
2022/10/27 01:48:36;;;;;;;;;;;11.90;99.90;;;;;;4950801;28;19933;-88
2022/10/27 01:51:02;;;;;;;;;;;12.00;99.90;;;;;;4958525;28;19926;-88
2022/10/27 01:53:35;;;;;;;;;;;12.00;99.90;;;;;;4953738;28;19996;-88
2022/10/27 01:56:03;;;;;;;;;;;12.00;99.90;;;;;;4983230;28;19925;-88
2022/10/27 01:58:35;;;;;;;;;;;12.00;99.90;;;;;;4957737;28;19926;-87
2022/10/27 02:01:12;;;;;;;;;;;12.00;99.90;;;;;;4960255;28;20005;-88
2022/10/27 02:03:50;;;;;;;;;;;12.00;99.90;;;;;;4956012;28;19956;-88
2022/10/27 02:06:23;;;;;;;;;;;12.00;99.90;;;;;;4963959;28;19930;-88
2022/10/27 02:08:53;;;;;;;;;;;11.50;99.90;;;;;;4939698;28;20021;-88
2022/10/27 02:11:19;;;;;;;;;;;12.10;99.90;;;;;;4961935;28;19926;-88
2022/10/27 02:13:45;;;;;;;;;;;12.00;99.90;;;;;;4947645;28;19933;-88
2022/10/27 02:16:21;;;;;;;;;;;12.00;99.90;;;;;;4957831;28;19930;-88
2022/10/27 02:18:55;;;;;;;;;;;12.00;99.90;;;;;;4954372;28;19926;-88
2022/10/27 02:21:24;;;;;;;;;;;12.00;99.90;;;;;;4978569;28;19927;-88
2022/10/27 02:23:50;;;;;;;;;;;12.00;99.90;;;;;;4942160;28;19982;-88
2022/10/27 02:26:25;;;;;;;;;;;11.90;99.90;;;;;;4963442;28;19934;-88
2022/10/27 02:28:54;;;;;;;;;;;12.00;99.90;;;;;;4941699;28;20261;-88
2022/10/27 02:31:23;;;;;;;;;;;12.10;99.90;;;;;;4961670;28;19926;-88
2022/10/27 02:33:50;;;;;;;;;;;12.00;99.90;;;;;;4957974;28;20040;-88
2022/10/27 02:36:18;;;;;;;;;;;12.00;99.90;;;;;;4957276;28;20041;-87
2022/10/27 02:38:47;;;;;;;;;;;12.00;99.90;;;;;;4941545;28;19981;-88
2022/10/27 02:41:20;;;;;;;;;;;13.30;99.90;;;;;;4945766;29;19933;-88
2022/10/27 02:43:45;;;;;;;;;;;12.00;99.90;;;;;;4970423;28;19933;-88
2022/10/27 02:46:14;;;;;;;;;;;12.10;99.90;;;;;;4957362;28;19926;-88
2022/10/27 02:48:39;;;;;;;;;;;11.40;99.90;;;;;;4967448;28;19926;-88
2022/10/27 02:51:07;;;;;;;;;;;13.30;99.90;;;;;;4942266;28;19926;-88
2022/10/27 02:53:35;;;;;;;;;;;10.90;99.90;;;;;;4948636;28;19926;-89
2022/10/27 02:56:01;;;;;;;;;;;11.30;99.90;;;;;;4937715;29;19977;-88
2022/10/27 02:58:27;;;;;;;;;;;12.00;99.90;;;;;;4943110;28;20013;-88
2022/10/27 03:00:54;;;;;;;;;;;12.30;99.90;;;;;;4941325;28;19930;-88
2022/10/27 03:03:22;;;;;;;;;;;12.00;99.90;;;;;;4943364;28;19926;-88
2022/10/27 03:05:51;;;;;;;;;;;12.10;99.90;;;;;;4954381;29;19927;-88
2022/10/27 03:08:17;;;;;;;;;;;13.20;99.90;;;;;;4956869;28;19953;-88
2022/10/27 03:10:46;;;;;;;;;;;12.00;99.90;;;;;;4964270;28;19927;-88
2022/10/27 03:13:14;;;;;;;;;;;12.00;99.90;;;;;;4944529;28;19929;-88
2022/10/27 03:15:42;;;;;;;;;;;12.00;99.90;;;;;;4957398;28;20261;-88
2022/10/27 03:18:08;;;;;;;;;;;12.00;99.90;;;;;;4941889;29;19927;-88
2022/10/27 03:20:38;;;;;;;;;;;11.90;99.90;;;;;;4976097;28;20068;-88
2022/10/27 03:23:04;;;;;;;;;;;12.00;99.90;;;;;;4955674;28;20407;-88
2022/10/27 03:25:30;;;;;;;;;;;12.00;99.90;;;;;;4954977;28;19926;-89
2022/10/27 03:27:55;;;;;;;;;;;12.00;99.90;;;;;;4957134;28;19988;-88
2022/10/27 03:30:24;;;;;;;;;;;12.00;99.90;;;;;;4941819;28;19974;-88
2022/10/27 03:32:50;;;;;;;;;;;12.00;99.90;;;;;;4963283;28;20024;-88
2022/10/27 03:35:19;;;;;;;;;;;12.00;99.90;;;;;;4969295;28;20356;-88
2022/10/27 03:37:45;;;;;;;;;;;12.00;99.90;;;;;;4969820;28;20029;-89
2022/10/27 03:40:11;;;;;;;;;;;12.00;99.90;;;;;;4969100;28;20068;-88
2022/10/27 03:42:42;;;;;;;;;;;12.00;99.90;;;;;;4951103;28;19933;-88
2022/10/27 03:45:09;;;;;;;;;;;12.00;99.90;;;;;;4963386;28;19926;-89
2022/10/27 03:47:34;;;;;;;;;;;10.80;99.90;;;;;;4960725;28;19934;-88
2022/10/27 03:50:00;;;;;;;;;;;12.00;99.90;;;;;;4968697;28;19926;-88
2022/10/27 03:52:26;;;;;;;;;;;12.00;99.90;;;;;;4950817;28;19926;-88
2022/10/27 03:54:51;;;;;;;;;;;12.00;99.90;;;;;;4944715;28;20241;-88
2022/10/27 03:57:19;;;;;;;;;;;12.00;99.90;;;;;;4947827;28;19926;-88
2022/10/27 03:59:45;;;;;;;;;;;12.00;99.90;;;;;;4979834;28;19933;-88
2022/10/27 04:02:13;;;;;;;;;;;12.00;99.90;;;;;;4950662;28;20299;-88
2022/10/27 04:04:38;;;;;;;;;;;12.10;99.90;;;;;;4967952;28;19933;-88
2022/10/27 04:07:06;;;;;;;;;;;11.90;99.90;;;;;;4952742;28;19934;-88
2022/10/27 04:09:32;;;;;;;;;;;12.00;99.90;;;;;;4959908;28;19926;-89
2022/10/27 04:11:58;;;;;;;;;;;11.90;99.90;;;;;;4988378;28;19933;-88
2022/10/27 04:14:26;;;;;;;;;;;12.00;99.90;;;;;;4961709;28;19981;-88
2022/10/27 04:17:02;;;;;;;;;;;11.90;99.90;;;;;;4955096;28;19980;-88
2022/10/27 04:19:27;;;;;;;;;;;11.90;99.90;;;;;;4965170;28;19927;-88
2022/10/27 04:21:53;;;;;;;;;;;12.00;99.90;;;;;;4951626;28;20484;-88
2022/10/27 04:24:19;;;;;;;;;;;11.90;99.90;;;;;;4978424;28;19926;-89
2022/10/27 04:26:45;;;;;;;;;;;11.80;99.90;;;;;;4963548;28;19937;-88
2022/10/27 04:29:10;;;;;;;;;;;11.90;99.90;;;;;;4943654;29;19934;-89
2022/10/27 04:31:36;;;;;;;;;;;11.90;99.90;;;;;;4949170;28;19985;-88
2022/10/27 04:34:01;;;;;;;;;;;12.00;99.90;;;;;;4941349;29;19926;-88
2022/10/27 04:36:28;;;;;;;;;;;11.80;99.90;;;;;;4956264;28;19926;-88
2022/10/27 04:38:53;;;;;;;;;;;11.80;99.90;;;;;;4943134;28;19973;-88
2022/10/27 04:41:19;;;;;;;;;;;11.90;99.90;;;;;;4964693;28;20005;-89
2022/10/27 04:43:47;;;;;;;;;;;11.90;99.90;;;;;;4954467;28;19936;-88
2022/10/27 04:46:16;;;;;;;;;;;12.00;99.90;;;;;;4959277;28;19973;-88
2022/10/27 04:48:42;;;;;;;;;;;11.90;99.90;;;;;;4960634;28;20025;-89
2022/10/27 04:51:10;;;;;;;;;;;12.90;99.90;;;;;;4966459;28;20436;-89
2022/10/27 04:53:35;;;;;;;;;;;11.80;99.90;;;;;;4964459;28;19948;-89
2022/10/27 04:56:11;;;;;;;;;;;11.80;99.90;;;;;;4973696;28;20403;-88
2022/10/27 04:58:36;;;;;;;;;;;11.80;99.90;;;;;;4975222;28;19926;-89
2022/10/27 05:01:09;;;;;;;;;;;11.90;99.90;;;;;;4949884;28;20029;-88
2022/10/27 05:03:35;;;;;;;;;;;11.80;99.90;;;;;;4962550;28;19965;-89
2022/10/27 05:06:01;;;;;;;;;;;11.70;99.90;;;;;;4969884;28;19949;-89
2022/10/27 05:08:26;;;;;;;;;;;11.80;99.90;;;;;;4945714;28;19976;-89
2022/10/27 05:10:52;;;;;;;;;;;11.80;99.90;;;;;;4947305;28;19926;-89
2022/10/27 05:13:18;;;;;;;;;;;11.70;99.90;;;;;;4958401;28;19978;-89
2022/10/27 05:15:43;;;;;;;;;;;11.70;99.90;;;;;;4949003;28;19930;-89
2022/10/27 05:18:09;;;;;;;;;;;11.70;99.90;;;;;;4957330;28;19934;-88
2022/10/27 05:20:35;;;;;;;;;;;11.80;99.90;;;;;;4939164;29;19937;-89
2022/10/27 05:23:00;;;;;;;;;;;11.70;99.90;;;;;;4957592;28;19977;-88
2022/10/27 05:25:26;;;;;;;;;;;11.10;99.90;;;;;;4956525;28;19950;-88
2022/10/27 05:27:54;;;;;;;;;;;10.60;99.90;;;;;;4953066;28;19933;-89
2022/10/27 05:30:20;;;;;;;;;;;11.60;99.90;;;;;;4966030;28;19926;-87
2022/10/27 05:32:45;;;;;;;;;;;11.60;99.90;;;;;;4947419;28;19977;-87
2022/10/27 05:35:11;;;;;;;;;;;11.70;99.90;;;;;;4948136;28;20322;-88
2022/10/27 05:37:41;;;;;;;;;;;11.70;99.90;;;;;;4945098;28;19926;-87
2022/10/27 05:40:10;;;;;;;;;;;11.70;99.90;;;;;;4941303;28;20069;-89
2022/10/27 05:42:36;;;;;;;;;;;11.70;99.90;;;;;;4947091;28;20016;-89
2022/10/27 05:45:04;;;;;;;;;;;11.70;99.90;;;;;;4939956;29;20004;-89
2022/10/27 05:47:37;;;;;;;;;;;11.70;99.90;;;;;;4946240;28;20351;-92
2022/10/27 05:50:11;;;;;;;;;;;11.80;99.90;;;;;;4941554;29;19934;-90
2022/10/27 05:52:50;;;;;;;;;;;;;;;;;;;;;
2022/10/27 05:55:23;;;;;;;;;;;11.70;99.90;;;;;;4974611;28;19930;-92
2022/10/27 05:58:14;;;;;;;;;;;11.70;99.90;;;;;;4937212;28;19930;-92
2022/10/27 06:03:51;;;;;;;;;;;12.60;99.90;;;;;;4900132;28;19927;-93
2022/10/27 06:06:24;;;;;;;;;;;11.80;99.90;;;;;;4981783;28;19953;-92
2022/10/27 06:08:50;;;;;;;;;;;12.00;99.90;;;;;;4960469;28;19980;-90
2022/10/27 06:11:18;;;;;;;;;;;11.80;99.90;;;;;;4947564;28;20280;-91
2022/10/27 06:13:43;;;;;;;;;;;11.80;99.90;;;;;;4938904;28;19931;-90
2022/10/27 06:16:11;;;;;;;;;;;12.40;99.90;;;;;;4948076;28;19933;-92
2022/10/27 06:18:37;;;;;;;;;;;11.80;99.90;;;;;;4948909;28;20295;-89
2022/10/27 06:21:03;;;;;;;;;;;11.80;99.90;;;;;;4954094;28;19930;-93
2022/10/27 06:23:31;;;;;;;;;;;11.90;99.90;;;;;;4949814;28;19932;-92
2022/10/27 06:25:59;;;;;;;;;;;12.00;99.90;;;;;;4949089;28;19926;-94
2022/10/27 06:28:33;;;;;;;;;;;11.90;99.90;;;;;;4959039;28;19930;-90
2022/10/27 06:30:59;;;;;;;;;;;11.30;99.90;;;;;;4946151;28;19933;-93
2022/10/27 06:33:27;;;;;;;;;;;11.80;99.90;;;;;;4946558;28;19949;-92
2022/10/27 06:35:53;;;;;;;;;;;11.70;99.90;;;;;;4971747;28;19934;-91
2022/10/27 06:38:21;;;;;;;;;;;11.90;99.90;;;;;;4952692;28;19969;-90
2022/10/27 06:40:52;;;;;;;;;;;11.80;99.90;;;;;;4945278;28;19933;-90
2022/10/27 06:43:17;;;;;;;;;;;12.00;99.90;;;;;;4942781;28;19934;-90
2022/10/27 06:45:50;;;;;;;;;;;11.80;99.90;;;;;;4964661;28;19926;-90
2022/10/27 06:48:18;;;;;;;;;;;11.80;99.90;;;;;;4930712;29;20012;-90
2022/10/27 06:50:46;;;;;;;;;;;12.60;99.90;;;;;;4959400;28;20021;-90
2022/10/27 06:53:12;;;;;;;;;;;11.90;99.90;;;;;;4939529;28;20300;-91
2022/10/27 06:55:38;;;;;;;;;;;11.80;99.90;;;;;;4962236;28;19926;-90
2022/10/27 06:58:09;;;;;;;;;;;11.90;99.90;;;;;;4941554;28;19953;-91
2022/10/27 07:00:54;;;;;;;;;;;11.90;99.90;;;;;;4962521;28;19930;-90
2022/10/27 07:03:22;;;;;;;;;;;11.90;99.90;;;;;;4954811;28;19932;-90
2022/10/27 07:05:48;;;;;;;;;;;12.10;99.90;;;;;;4945845;28;20327;-90
2022/10/27 07:08:13;;;;;;;;;;;12.00;99.90;;;;;;4940320;28;20010;-90
2022/10/27 07:10:41;;;;;;;;;;;12.10;99.90;;;;;;4962988;28;19932;-89
2022/10/27 07:13:10;;;;;;;;;;;12.10;99.90;;;;;;4944299;28;19977;-90
2022/10/27 07:15:37;;;;;;;;;;;12.20;99.90;;;;;;4940991;28;19926;-90
2022/10/27 07:18:05;;;;;;;;;;;12.20;99.90;;;;;;4962326;28;19926;-89
2022/10/27 07:20:33;;;;;;;;;;;12.20;99.90;;;;;;4941033;28;19927;-89
2022/10/27 07:23:01;;;;;;;;;;;12.20;99.90;;;;;;4960821;28;19988;-91
2022/10/27 07:25:30;;;;;;;;;;;12.80;99.90;;;;;;4945971;28;19933;-91
2022/10/27 07:27:57;;;;;;;;;;;12.30;99.90;;;;;;4940890;28;19930;-91
2022/10/27 07:30:26;;;;;;;;;;;12.60;99.90;;;;;;4945504;28;19926;-90
2022/10/27 07:32:55;;;;;;;;;;;12.40;99.90;;;;;;4949453;28;20009;-90
2022/10/27 07:35:23;;;;;;;;;;;12.50;99.90;;;;;;4952402;28;20013;-89
2022/10/27 07:37:51;;;;;;;;;;;12.50;99.90;;;;;;4949776;28;19931;-90
2022/10/27 07:40:20;;;;;;;;;;;12.60;99.90;;;;;;4947667;28;19933;-91
2022/10/27 07:42:47;;;;;;;;;;;12.60;99.90;;;;;;4946747;28;19933;-89
2022/10/27 07:45:14;;;;;;;;;;;12.60;99.90;;;;;;4950730;28;20292;-90
2022/10/27 07:47:46;;;;;;;;;;;12.80;99.90;;;;;;4945255;28;19925;-89
2022/10/27 07:50:12;;;;;;;;;;;12.70;99.90;;;;;;4964707;28;19930;-90
2022/10/27 07:52:44;;;;;;;;;;;13.70;99.90;;;;;;4963574;28;19933;-91
2022/10/27 07:55:11;;;;;;;;;;;12.80;99.90;;;;;;4942901;28;19933;-89
2022/10/27 07:57:39;;;;;;;;;;;11.80;99.90;;;;;;4942344;28;19926;-90
2022/10/27 08:00:13;;;;;;;;;;;13.00;99.90;;;;;;4944360;28;19946;-94
2022/10/27 08:02:39;;;;;;;;;;;13.10;99.90;;;;;;4946466;28;20380;-89
2022/10/27 08:05:05;;;;;;;;;;;13.20;99.90;;;;;;4966548;28;19926;-88
2022/10/27 08:07:31;;;;;;;;;;;13.20;99.90;;;;;;4943636;28;20363;-91
2022/10/27 08:09:56;;;;;;;;;;;13.10;99.90;;;;;;4946573;28;19925;-90
2022/10/27 08:12:22;;;;;;;;;;;13.20;99.90;;;;;;4946857;28;19989;-92
2022/10/27 08:14:48;;;;;;;;;;;13.20;99.90;;;;;;4947333;28;19926;-90
2022/10/27 08:17:17;;;;;;;;;;;13.20;99.90;;;;;;4962320;28;19932;-91
2022/10/27 08:19:42;;;;;;;;;;;13.40;99.90;;;;;;4958048;28;19926;-90
2022/10/27 08:22:10;;;;;;;;;;;13.60;99.90;;;;;;4945430;28;19985;-90
2022/10/27 08:24:36;;;;;;;;;;;13.50;99.90;;;;;;4946217;28;19926;-89
2022/10/27 08:27:04;;;;;;;;;;;13.60;99.90;;;;;;4946146;28;20022;-90
2022/10/27 08:29:32;;;;;;;;;;;13.70;99.90;;;;;;4939581;28;19973;-90
2022/10/27 08:31:58;;;;;;;;;;;13.60;99.90;;;;;;4952290;28;19926;-89
2022/10/27 08:34:26;;;;;;;;;;;13.90;99.90;;;;;;4949199;28;19937;-91
2022/10/27 08:36:54;;;;;;;;;;;13.70;99.90;;;;;;4949830;28;19926;-88
2022/10/27 08:39:20;;;;;;;;;;;13.70;99.90;;;;;;4934065;28;19926;-89
2022/10/27 08:41:45;;;;;;;;;;;13.70;99.90;;;;;;4946634;28;20060;-88
2022/10/27 08:44:11;;;;;;;;;;;13.70;99.90;;;;;;4976635;28;19933;-90
2022/10/27 08:46:53;;;;;;;;;;;13.70;99.90;;;;;;4956107;28;19972;-90
2022/10/27 08:49:33;;;;;;;;;;;13.90;99.90;;;;;;4951773;28;19930;-90
2022/10/27 08:52:03;;;;;;;;;;;13.80;99.90;;;;;;4943626;28;20288;-91
2022/10/27 08:54:29;;;;;;;;;;;13.90;99.90;;;;;;4974549;28;19934;-89
2022/10/27 08:57:03;;;;;;;;;;;14.10;99.90;;;;;;4965025;28;20311;-89
2022/10/27 08:59:33;;;;;;;;;;;14.10;99.90;;;;;;4964465;28;19980;-89
2022/10/27 09:01:59;;;;;;;;;;;14.10;99.90;;;;;;4960775;28;20042;-89
2022/10/27 09:04:25;;;;;;;;;;;14.20;99.90;;;;;;4967080;28;20000;-88
2022/10/27 09:06:50;;;;;;;;;;;14.40;99.90;;;;;;4968542;28;20336;-90
2022/10/27 09:09:35;;;;;;;;;;;14.20;99.90;;;;;;4951319;28;20023;-89
2022/10/27 09:12:16;;;;;;;;;;;14.60;99.90;;;;;;4975434;28;19925;-89
2022/10/27 09:15:01;;;;;;;;;;;14.60;99.90;;;;;;4955450;28;20040;-88
2022/10/27 09:17:37;;;;;;;;;;;14.70;99.90;;;;;;4964182;28;20023;-89
2022/10/27 09:20:05;;;;;;;;;;;14.80;99.90;;;;;;4958575;28;20332;-89
2022/10/27 09:22:32;;;;;;;;;;;15.50;99.90;;;;;;4946336;28;19926;-90
2022/10/27 09:25:05;;;;;;;;;;;15.00;99.90;;;;;;4958152;28;20352;-90
2022/10/27 09:27:34;;;;;;;;;;;15.10;99.90;;;;;;4964057;28;19953;-89
2022/10/27 09:30:04;;;;;;;;;;;15.10;99.90;;;;;;4947947;29;19938;-89
2022/10/27 09:32:31;;;;;;;;;;;15.20;99.90;;;;;;4956811;28;19974;-89
2022/10/27 09:35:00;;;;;;;;;;;16.30;99.90;;;;;;4967834;28;19941;-89
2022/10/27 09:37:27;;;;;;;;;;;15.20;99.90;;;;;;4950750;28;19925;-90
2022/10/27 09:39:53;;;;;;;;;;;15.30;99.90;;;;;;4947051;28;19934;-90
2022/10/27 09:42:21;;;;;;;;;;;15.40;99.90;;;;;;4966843;28;20080;-90
2022/10/27 09:44:49;;;;;;;;;;;14.50;99.90;;;;;;4945140;28;19962;-88
2022/10/27 09:47:15;;;;;;;;;;;15.50;99.90;;;;;;4946383;28;19942;-88
2022/10/27 09:49:44;;;;;;;;;;;15.60;99.90;;;;;;4966402;28;19976;-88
2022/10/27 09:52:16;;;;;;;;;;;15.70;99.90;;;;;;4954040;28;19961;-89
2022/10/27 09:54:55;;;;;;;;;;;15.70;99.90;;;;;;4942490;28;20376;-89
2022/10/27 09:57:29;;;;;;;;;;;15.80;99.90;;;;;;4962854;28;19934;-89
2022/10/27 10:00:04;;;;;;;;;;;15.90;99.90;;;;;;4947711;28;20273;-89
2022/10/27 10:02:38;;;;;;;;;;;15.90;99.90;;;;;;4964019;28;20005;-89
2022/10/27 10:05:18;;;;;;;;;;;15.90;99.90;;;;;;4966131;28;19926;-89
2022/10/27 10:07:45;;;;;;;;;;;16.00;99.90;;;;;;4945431;28;19969;-89
2022/10/27 10:10:30;;;;;;;;;;;16.00;99.90;;;;;;4946516;28;20270;-90
2022/10/27 10:12:59;;;;;;;;;;;16.10;99.90;;;;;;4954885;28;19969;-88
2022/10/27 10:15:25;;;;;;;;;;;16.20;99.90;;;;;;4968982;28;19953;-90
2022/10/27 10:18:00;;;;;;;;;;;16.20;99.90;;;;;;4929833;28;19934;-89
2022/10/27 10:20:32;;;;;;;;;;;16.20;99.90;;;;;;4953043;28;20272;-89
2022/10/27 10:23:00;;;;;;;;;;;16.30;99.90;;;;;;4938930;28;19929;-89
2022/10/27 10:25:29;;;;;;;;;;;16.40;99.90;;;;;;4963345;28;19969;-87
2022/10/27 10:28:05;;;;;;;;;;;16.70;99.90;;;;;;4940274;28;19949;-87
2022/10/27 10:30:36;;;;;;;;;;;16.60;99.90;;;;;;4947717;28;20017;-88
2022/10/27 10:33:05;;;;;;;;;;;16.60;99.90;;;;;;4954562;28;19933;-87
2022/10/27 10:35:43;;;;;;;;;;;16.80;99.90;;;;;;4951658;28;19977;-87
2022/10/27 10:38:31;;;;;;;;;;;16.70;99.90;;;;;;4958008;28;19922;-88
2022/10/27 10:41:09;;;;;;;;;;;16.80;99.90;;;;;;4971029;28;19927;-89
2022/10/27 10:43:34;;;;;;;;;;;16.90;99.90;;;;;;4958475;28;20419;-88
2022/10/27 10:46:00;;;;;;;;;;;17.00;99.90;;;;;;4950328;28;20028;-88
2022/10/27 10:48:34;;;;;;;;;;;17.00;99.90;;;;;;4968759;28;19962;-87
2022/10/27 10:51:00;;;;;;;;;;;17.10;99.90;;;;;;4974333;28;19966;-89
2022/10/27 10:53:29;;;;;;;;;;;17.10;99.90;;;;;;4972148;28;19958;-88
2022/10/27 10:55:56;;;;;;;;;;;17.20;99.90;;;;;;4970213;28;19976;-88
2022/10/27 10:58:24;;;;;;;;;;;17.30;99.90;;;;;;4954343;28;19926;-88
2022/10/27 11:01:08;;;;;;;;;;;17.30;99.90;;;;;;4965158;28;20372;-87
2022/10/27 11:03:39;;;;;;;;;;;17.40;99.90;;;;;;4956423;28;19968;-88
2022/10/27 11:06:13;;;;;;;;;;;17.50;99.90;;;;;;4951214;28;19934;-88
2022/10/27 11:08:42;;;;;;;;;;;17.60;99.90;;;;;;4960202;28;19922;-87
2022/10/27 11:11:19;;;;;;;;;;;17.60;99.90;;;;;;4973922;28;19930;-87
2022/10/27 11:13:48;;;;;;;;;;;17.70;99.90;;;;;;4949632;28;20012;-87
2022/10/27 11:16:14;;;;;;;;;;;17.70;99.90;;;;;;4952308;28;20000;-88
2022/10/27 11:18:39;;;;;;;;;;;17.80;99.90;;;;;;4963733;28;20009;-87
2022/10/27 11:21:09;;;;;;;;;;;17.90;99.90;;;;;;4961293;28;19922;-90
2022/10/27 11:23:37;;;;;;;;;;;18.00;99.90;;;;;;4948222;28;19926;-90
2022/10/27 11:26:06;;;;;;;;;;;18.00;99.90;;;;;;4963402;28;19921;-91
2022/10/27 11:28:42;;;;;;;;;;;18.10;99.90;;;;;;4968900;28;19989;-91
2022/10/27 11:31:36;;;;;;;;;;;;;;;;;;;;;
2022/10/27 11:34:58;;;;;;;;;;;18.40;99.90;;;;;;4964192;28;19927;-90
2022/10/27 11:37:39;;;;;;;;;;;18.30;99.90;;;;;;4882326;29;19939;-91
2022/10/27 11:40:10;;;;;;;;;;;17.80;99.90;;;;;;4891549;29;20400;-92
2022/10/27 11:42:41;;;;;;;;;;;18.60;99.90;;;;;;4933201;28;19926;-90
2022/10/27 11:45:22;;;;;;;;;;;18.50;99.90;;;;;;4963856;28;19926;-89
2022/10/27 11:47:51;;;;;;;;;;;18.50;99.90;;;;;;4955170;28;20035;-89
2022/10/27 11:50:23;;;;;;;;;;;18.50;99.90;;;;;;4966273;28;19941;-89
2022/10/27 11:52:53;;;;;;;;;;;18.80;99.90;;;;;;4979769;28;20657;-87
2022/10/27 11:55:20;;;;;;;;;;;18.60;99.90;;;;;;4982751;28;19930;-89
2022/10/27 11:58:23;;;;;;;;;;;18.60;99.90;;;;;;4944437;28;19934;-86
2022/10/27 12:01:00;;;;;;;;;;;18.70;99.90;;;;;;4912951;28;20012;-87
2022/10/27 12:03:26;;;;;;;;;;;18.90;99.90;;;;;;4944245;28;20299;-87
2022/10/27 12:05:56;;;;;;;;;;;18.90;99.90;;;;;;4960740;28;19926;-88
2022/10/27 12:08:41;;;;;;;;;;;19.00;99.90;;;;;;4954940;28;20408;-87
2022/10/27 12:11:27;;;;;;;;;;;19.00;99.90;;;;;;4958625;28;19926;-87
2022/10/27 12:14:18;;;;;;;;;;;19.40;99.90;;;;;;4953253;28;19933;-87
2022/10/27 12:17:04;;;;;;;;;;;18.90;99.90;;;;;;4937576;28;19930;-86
2022/10/27 12:19:34;;;;;;;;;;;19.00;99.90;;;;;;4952947;28;20328;-86
2022/10/27 12:22:08;;;;;;;;;;;19.20;99.90;;;;;;4950934;28;20360;-88
2022/10/27 12:24:37;;;;;;;;;;;19.20;99.90;;;;;;4966560;28;19930;-88
2022/10/27 12:27:13;;;;;;;;;;;19.30;99.90;;;;;;4964305;28;19941;-88
2022/10/27 12:29:43;;;;;;;;;;;19.40;99.90;;;;;;4965366;28;19930;-88
2022/10/27 12:32:16;;;;;;;;;;;19.50;99.90;;;;;;4984035;28;19926;-87
2022/10/27 12:34:47;;;;;;;;;;;19.50;99.90;;;;;;4961852;28;19926;-89
2022/10/27 12:37:28;;;;;;;;;;;19.40;99.90;;;;;;4956737;28;19926;-87
2022/10/27 12:39:57;;;;;;;;;;;19.40;99.90;;;;;;4960390;28;19934;-89
2022/10/27 12:42:45;;;;;;;;;;;19.30;99.90;;;;;;4972641;28;19926;-86
2022/10/27 12:45:23;;;;;;;;;;;19.10;99.90;;;;;;4977217;28;19949;-89
2022/10/27 12:48:12;;;;;;;;;;;19.10;99.90;;;;;;4961566;28;20016;-88
2022/10/27 12:50:46;;;;;;;;;;;19.10;99.90;;;;;;4970274;28;20471;-90
2022/10/27 12:53:15;;;;;;;;;;;19.00;99.90;;;;;;4955429;28;19926;-89
2022/10/27 12:55:40;;;;;;;;;;;19.10;99.90;;;;;;4957717;28;19969;-89
2022/10/27 12:58:18;;;;;;;;;;;19.10;99.90;;;;;;4961569;28;20351;-90
2022/10/27 13:00:48;;;;;;;;;;;19.00;99.90;;;;;;4956129;28;19984;-89
2022/10/27 13:03:14;;;;;;;;;;;18.90;99.90;;;;;;4941740;28;19936;-89
2022/10/27 13:05:51;;;;;;;;;;;18.90;99.90;;;;;;4962324;28;19934;-88
2022/10/27 13:08:25;;;;;;;;;;;19.00;99.90;;;;;;4956711;28;19938;-89
2022/10/27 13:11:07;;;;;;;;;;;19.00;99.90;;;;;;4969583;28;19932;-90
2022/10/27 13:13:35;;;;;;;;;;;19.20;99.90;;;;;;4946985;28;19957;-90
2022/10/27 13:16:15;;;;;;;;;;;19.10;99.90;;;;;;4959985;28;19926;-91
2022/10/27 13:18:58;;;;;;;;;;;19.10;99.90;;;;;;4978096;28;19926;-87
2022/10/27 13:21:28;;;;;;;;;;;19.20;99.90;;;;;;4970643;28;19949;-87
2022/10/27 13:24:08;;;;;;;;;;;19.20;99.90;;;;;;4939034;28;19992;-88
2022/10/27 13:26:39;;;;;;;;;;;19.10;99.90;;;;;;4954486;28;19978;-87
2022/10/27 13:29:25;;;;;;;;;;;19.00;99.90;;;;;;4946623;28;19934;-89
2022/10/27 13:32:10;;;;;;;;;;;18.90;99.90;;;;;;4947702;28;19952;-89
2022/10/27 13:34:35;;;;;;;;;;;18.90;99.90;;;;;;4979534;28;19926;-88
2022/10/27 13:37:24;;;;;;;;;;;18.80;99.90;;;;;;4967403;28;20269;-87
2022/10/27 13:39:50;;;;;;;;;;;18.80;99.90;;;;;;4905560;28;19930;-88
2022/10/27 13:42:16;;;;;;;;;;;18.90;99.90;;;;;;4946855;28;20269;-87
2022/10/27 13:44:42;;;;;;;;;;;18.90;99.90;;;;;;4942504;28;19926;-88
2022/10/27 13:47:12;;;;;;;;;;;18.90;99.90;;;;;;4939926;28;19941;-89
2022/10/27 13:49:48;;;;;;;;;;;18.90;99.90;;;;;;4973654;28;20762;-87
2022/10/27 13:52:14;;;;;;;;;;;18.90;99.90;;;;;;4963403;28;19934;-88
2022/10/27 13:54:58;;;;;;;;;;;18.80;99.90;;;;;;4965869;28;19926;-88
2022/10/27 13:57:36;;;;;;;;;;;18.80;99.90;;;;;;4957043;28;19930;-88
2022/10/27 14:00:10;;;;;;;;;;;18.70;99.90;;;;;;4959560;28;20044;-89
2022/10/27 14:02:43;;;;;;;;;;;18.60;99.90;;;;;;4955597;28;19930;-89
2022/10/27 14:05:20;;;;;;;;;;;18.50;99.90;;;;;;4968713;28;19933;-88
2022/10/27 14:07:45;;;;;;;;;;;18.50;99.90;;;;;;4941283;28;20247;-88
2022/10/27 14:10:12;;;;;;;;;;;18.40;99.90;;;;;;4941438;28;20013;-87
2022/10/27 14:12:38;;;;;;;;;;;18.30;99.90;;;;;;4957924;28;19926;-88
2022/10/27 14:15:06;;;;;;;;;;;18.20;99.90;;;;;;4944553;28;19937;-89
2022/10/27 14:17:33;;;;;;;;;;;18.20;99.90;;;;;;4955671;28;19933;-88
2022/10/27 14:20:02;;;;;;;;;;;18.10;99.90;;;;;;4958615;28;19933;-88
2022/10/27 14:22:35;;;;;;;;;;;18.00;99.90;;;;;;4938731;28;19934;-90
2022/10/27 14:25:24;;;;;;;;;;;17.90;99.90;;;;;;4933484;28;20009;-88
2022/10/27 14:28:01;;;;;;;;;;;17.80;99.90;;;;;;4936826;28;20345;-87
2022/10/27 14:30:27;;;;;;;;;;;17.60;99.90;;;;;;4964962;28;19926;-88
2022/10/27 14:32:53;;;;;;;;;;;17.50;99.90;;;;;;4942436;28;19945;-87
2022/10/27 14:35:26;;;;;;;;;;;17.50;99.90;;;;;;4946291;28;19930;-88
2022/10/27 14:37:56;;;;;;;;;;;17.40;99.90;;;;;;4946160;28;20100;-88
2022/10/27 14:40:24;;;;;;;;;;;17.40;99.90;;;;;;4945753;28;19922;-87
2022/10/27 14:42:51;;;;;;;;;;;17.40;99.90;;;;;;4949857;28;19922;-87